Kingston Norman Rogers Airport
CYGK : now visible

Airfield :











YOU CAN JOIN US ON...

 
LOGIN :

Register | Disclaimer

   EN    FR    IT 

 









Legend :    VFR   Marginal VFR   IFR   Intensive IFR   Very Intensive IFR
Visi :
Ceiling :
>= 8 km
>= 3000ft
5 to 8 km
1000 to 3000 ft
1500m to 5 km
500 to 1000 ft
800 to 1500m
200 to 500 ft
< 800m
< 200 ft
Symbols :   Thunderstorms  Fog  Heavy snow  Heavy precipitations  Wind > 20 kt






- Airport Elevation : 305 ft
- IATA code : YGK


CYGK - Kingston Norman Rogers

CURRENT METAR :
  • 081900Z 20005KT 15SM OVC030 07/01 A2963 RMK SC8 SLP039

EXPIRED METARs :
  • 081800Z 19006KT 15SM OVC042 07/M00 A2964 RMK SC8 SLP042
  • 081700Z 18005KT 15SM OVC042 07/M02 A2964 RMK SC8 SLP040

TAF TAF CYGK
Valid from the 08 at 14:00 until the 09 at 02:00 UTC


081340Z 0814/0902 35006KT P6SM OVC060
BECMG 0817/0819 19010KT
FM081900 19010KT P6SM SCT020 OVC050
TEMPO 0819/0822 P6SM -SHRA OVC020
FM082200 19009KT P6SM OVC020
TEMPO 0822/0824 3SM -SHRA BR OVC008
FM090000 18009KT 6SM BR BKN008 OVC012 RMK NXT FCST BY 082000Z



MET'MAP, your aeronautical weather chart ! - Copyright ORBIFLY December 2007 - Disclaimer

ORBIFLY MET'MAP TEAM :

Programming & Development : Alexandra Zaïnal
Concept & original design : Baudouin d'Aumeries
Assistance for programming : Marc-Olivier Méhu
Technical & hardware support : Manuel Goepfert

Contact : metmap@orbifly.com




SOURCES & CREDITS :

   NOAA       Earth
Advisory